sensor_id;sensor_type;location;lat;lon;timestamp;temperature;humidity
24426;DHT22;12611;44.446;26.000;2022-07-29T00:01:41;26.60;74.80
24426;DHT22;12611;44.446;26.000;2022-07-29T00:04:09;26.60;75.30
24426;DHT22;12611;44.446;26.000;2022-07-29T00:06:38;26.60;75.10
24426;DHT22;12611;44.446;26.000;2022-07-29T00:09:07;26.50;75.10
24426;DHT22;12611;44.446;26.000;2022-07-29T00:11:35;26.60;75.10
24426;DHT22;12611;44.446;26.000;2022-07-29T00:14:04;26.50;75.10
24426;DHT22;12611;44.446;26.000;2022-07-29T00:16:34;26.50;75.30
24426;DHT22;12611;44.446;26.000;2022-07-29T00:19:03;26.50;75.30
24426;DHT22;12611;44.446;26.000;2022-07-29T00:21:33;26.50;75.30
24426;DHT22;12611;44.446;26.000;2022-07-29T00:24:02;26.50;75.30
24426;DHT22;12611;44.446;26.000;2022-07-29T00:26:33;26.40;75.40
24426;DHT22;12611;44.446;26.000;2022-07-29T00:29:03;26.50;75.40
24426;DHT22;12611;44.446;26.000;2022-07-29T00:31:54;26.40;75.60
24426;DHT22;12611;44.446;26.000;2022-07-29T00:34:22;26.40;75.70
24426;DHT22;12611;44.446;26.000;2022-07-29T00:37:08;26.40;75.60
24426;DHT22;12611;44.446;26.000;2022-07-29T00:39:37;26.40;75.70
24426;DHT22;12611;44.446;26.000;2022-07-29T00:42:06;26.40;75.70
24426;DHT22;12611;44.446;26.000;2022-07-29T00:44:37;26.40;76.30
24426;DHT22;12611;44.446;26.000;2022-07-29T00:47:08;26.30;76.10
24426;DHT22;12611;44.446;26.000;2022-07-29T00:49:38;26.30;76.10
24426;DHT22;12611;44.446;26.000;2022-07-29T00:52:08;26.30;76.20
24426;DHT22;12611;44.446;26.000;2022-07-29T00:54:39;26.30;76.30
24426;DHT22;12611;44.446;26.000;2022-07-29T00:57:11;26.30;76.60
24426;DHT22;12611;44.446;26.000;2022-07-29T00:59:40;26.20;76.60
24426;DHT22;12611;44.446;26.000;2022-07-29T01:02:10;26.20;76.80
24426;DHT22;12611;44.446;26.000;2022-07-29T01:04:39;26.20;76.70
24426;DHT22;12611;44.446;26.000;2022-07-29T01:07:08;26.20;76.90
24426;DHT22;12611;44.446;26.000;2022-07-29T01:09:37;26.10;77.00
24426;DHT22;12611;44.446;26.000;2022-07-29T01:12:15;26.10;77.20
24426;DHT22;12611;44.446;26.000;2022-07-29T01:14:45;26.10;77.20
24426;DHT22;12611;44.446;26.000;2022-07-29T01:17:22;26.10;77.30
24426;DHT22;12611;44.446;26.000;2022-07-29T01:19:58;26.10;77.30
24426;DHT22;12611;44.446;26.000;2022-07-29T01:22:35;26.10;77.40
24426;DHT22;12611;44.446;26.000;2022-07-29T01:25:19;26.10;77.60
24426;DHT22;12611;44.446;26.000;2022-07-29T01:28:01;26.00;77.80
24426;DHT22;12611;44.446;26.000;2022-07-29T01:30:41;26.10;77.90
24426;DHT22;12611;44.446;26.000;2022-07-29T01:33:13;26.00;77.80
24426;DHT22;12611;44.446;26.000;2022-07-29T01:36:07;26.00;77.80
24426;DHT22;12611;44.446;26.000;2022-07-29T01:38:39;26.00;77.80
24426;DHT22;12611;44.446;26.000;2022-07-29T01:41:10;26.00;78.10
24426;DHT22;12611;44.446;26.000;2022-07-29T01:43:44;26.00;78.10
24426;DHT22;12611;44.446;26.000;2022-07-29T01:46:21;26.10;78.20
24426;DHT22;12611;44.446;26.000;2022-07-29T01:48:55;26.10;78.60
24426;DHT22;12611;44.446;26.000;2022-07-29T01:51:27;26.00;79.10
24426;DHT22;12611;44.446;26.000;2022-07-29T01:54:04;26.00;79.10
24426;DHT22;12611;44.446;26.000;2022-07-29T01:56:34;25.90;79.70
24426;DHT22;12611;44.446;26.000;2022-07-29T01:59:04;25.90;79.70
24426;DHT22;12611;44.446;26.000;2022-07-29T02:01:39;25.90;79.70
24426;DHT22;12611;44.446;26.000;2022-07-29T02:04:10;25.90;79.50
24426;DHT22;12611;44.446;26.000;2022-07-29T02:06:58;25.90;79.30
24426;DHT22;12611;44.446;26.000;2022-07-29T02:09:27;25.90;79.10
24426;DHT22;12611;44.446;26.000;2022-07-29T02:11:59;25.90;79.10
24426;DHT22;12611;44.446;26.000;2022-07-29T02:14:35;25.90;79.10
24426;DHT22;12611;44.446;26.000;2022-07-29T02:17:06;26.00;79.30
24426;DHT22;12611;44.446;26.000;2022-07-29T02:19:37;25.90;79.10
24426;DHT22;12611;44.446;26.000;2022-07-29T02:22:07;26.00;79.00
24426;DHT22;12611;44.446;26.000;2022-07-29T02:24:37;26.00;79.10
24426;DHT22;12611;44.446;26.000;2022-07-29T02:27:07;26.00;79.20
24426;DHT22;12611;44.446;26.000;2022-07-29T02:29:37;26.00;79.40
24426;DHT22;12611;44.446;26.000;2022-07-29T02:32:10;26.00;79.20
24426;DHT22;12611;44.446;26.000;2022-07-29T02:34:40;26.00;79.40
24426;DHT22;12611;44.446;26.000;2022-07-29T02:37:10;26.00;79.10
24426;DHT22;12611;44.446;26.000;2022-07-29T02:39:41;26.00;79.20
24426;DHT22;12611;44.446;26.000;2022-07-29T02:42:14;26.10;79.10
24426;DHT22;12611;44.446;26.000;2022-07-29T02:44:44;26.10;78.90
24426;DHT22;12611;44.446;26.000;2022-07-29T02:47:18;26.10;78.80
24426;DHT22;12611;44.446;26.000;2022-07-29T02:49:53;26.10;78.70
24426;DHT22;12611;44.446;26.000;2022-07-29T02:52:27;26.10;78.60
24426;DHT22;12611;44.446;26.000;2022-07-29T02:54:58;26.10;78.40
24426;DHT22;12611;44.446;26.000;2022-07-29T02:57:32;26.20;78.30
24426;DHT22;12611;44.446;26.000;2022-07-29T03:00:21;26.10;78.10
24426;DHT22;12611;44.446;26.000;2022-07-29T03:02:54;26.20;78.10
24426;DHT22;12611;44.446;26.000;2022-07-29T03:05:26;26.20;78.00
24426;DHT22;12611;44.446;26.000;2022-07-29T03:07:56;26.20;77.90
24426;DHT22;12611;44.446;26.000;2022-07-29T03:10:26;26.20;77.80
24426;DHT22;12611;44.446;26.000;2022-07-29T03:12:55;26.20;77.70
24426;DHT22;12611;44.446;26.000;2022-07-29T03:15:25;26.20;77.60
24426;DHT22;12611;44.446;26.000;2022-07-29T03:17:56;26.20;77.60
24426;DHT22;12611;44.446;26.000;2022-07-29T03:20:25;26.20;77.50
24426;DHT22;12611;44.446;26.000;2022-07-29T03:22:54;26.30;77.50
24426;DHT22;12611;44.446;26.000;2022-07-29T03:25:22;26.20;77.30
24426;DHT22;12611;44.446;26.000;2022-07-29T03:27:51;26.30;77.40
24426;DHT22;12611;44.446;26.000;2022-07-29T03:30:19;26.30;77.40
24426;DHT22;12611;44.446;26.000;2022-07-29T03:32:49;26.30;77.30
24426;DHT22;12611;44.446;26.000;2022-07-29T03:35:20;26.40;77.30
24426;DHT22;12611;44.446;26.000;2022-07-29T03:37:49;26.40;77.30
24426;DHT22;12611;44.446;26.000;2022-07-29T03:40:22;26.40;77.30
24426;DHT22;12611;44.446;26.000;2022-07-29T03:42:54;26.40;77.20
24426;DHT22;12611;44.446;26.000;2022-07-29T03:45:24;26.40;77.10
24426;DHT22;12611;44.446;26.000;2022-07-29T03:47:56;26.40;77.20
24426;DHT22;12611;44.446;26.000;2022-07-29T03:50:29;26.40;77.20
24426;DHT22;12611;44.446;26.000;2022-07-29T03:52:58;26.40;77.00
24426;DHT22;12611;44.446;26.000;2022-07-29T03:55:28;26.40;77.00
24426;DHT22;12611;44.446;26.000;2022-07-29T03:58:00;26.40;76.90
24426;DHT22;12611;44.446;26.000;2022-07-29T04:00:30;26.40;76.90
24426;DHT22;12611;44.446;26.000;2022-07-29T04:03:00;26.40;76.90
24426;DHT22;12611;44.446;26.000;2022-07-29T04:05:31;26.50;76.90
24426;DHT22;12611;44.446;26.000;2022-07-29T04:07:59;26.50;77.10
24426;DHT22;12611;44.446;26.000;2022-07-29T04:10:28;26.40;76.90
24426;DHT22;12611;44.446;26.000;2022-07-29T04:12:58;26.50;77.10
24426;DHT22;12611;44.446;26.000;2022-07-29T04:15:27;26.50;77.10
24426;DHT22;12611;44.446;26.000;2022-07-29T04:17:58;26.50;77.10
24426;DHT22;12611;44.446;26.000;2022-07-29T04:20:26;26.50;77.10
24426;DHT22;12611;44.446;26.000;2022-07-29T04:22:56;26.60;77.10
24426;DHT22;12611;44.446;26.000;2022-07-29T04:25:24;26.60;77.20
24426;DHT22;12611;44.446;26.000;2022-07-29T04:27:53;26.60;77.20
24426;DHT22;12611;44.446;26.000;2022-07-29T04:30:31;26.60;77.20
24426;DHT22;12611;44.446;26.000;2022-07-29T04:33:00;26.60;77.20
24426;DHT22;12611;44.446;26.000;2022-07-29T04:35:30;26.60;77.10
24426;DHT22;12611;44.446;26.000;2022-07-29T04:38:06;26.60;76.90
24426;DHT22;12611;44.446;26.000;2022-07-29T04:40:43;26.60;77.00
24426;DHT22;12611;44.446;26.000;2022-07-29T04:43:13;26.60;76.90
24426;DHT22;12611;44.446;26.000;2022-07-29T04:45:48;26.60;77.00
24426;DHT22;12611;44.446;26.000;2022-07-29T04:48:17;26.70;77.00
24426;DHT22;12611;44.446;26.000;2022-07-29T04:50:48;26.70;77.00
24426;DHT22;12611;44.446;26.000;2022-07-29T04:53:18;26.70;77.00
24426;DHT22;12611;44.446;26.000;2022-07-29T04:55:46;26.80;77.10
24426;DHT22;12611;44.446;26.000;2022-07-29T04:58:15;26.80;77.00
24426;DHT22;12611;44.446;26.000;2022-07-29T05:00:43;26.80;76.90
24426;DHT22;12611;44.446;26.000;2022-07-29T05:03:12;26.90;76.90
24426;DHT22;12611;44.446;26.000;2022-07-29T05:05:40;26.90;76.80
24426;DHT22;12611;44.446;26.000;2022-07-29T05:08:09;26.90;76.60
24426;DHT22;12611;44.446;26.000;2022-07-29T05:10:39;27.00;76.70
24426;DHT22;12611;44.446;26.000;2022-07-29T05:13:07;27.00;76.60
24426;DHT22;12611;44.446;26.000;2022-07-29T05:15:36;27.00;76.50
24426;DHT22;12611;44.446;26.000;2022-07-29T05:18:05;27.10;76.50
24426;DHT22;12611;44.446;26.000;2022-07-29T05:20:33;27.10;76.40
24426;DHT22;12611;44.446;26.000;2022-07-29T05:23:02;27.10;76.20
24426;DHT22;12611;44.446;26.000;2022-07-29T05:25:31;27.20;76.00
24426;DHT22;12611;44.446;26.000;2022-07-29T05:28:12;27.20;75.80
24426;DHT22;12611;44.446;26.000;2022-07-29T05:30:41;27.30;75.70
24426;DHT22;12611;44.446;26.000;2022-07-29T05:33:11;27.30;75.20
24426;DHT22;12611;44.446;26.000;2022-07-29T05:35:59;27.30;75.20
24426;DHT22;12611;44.446;26.000;2022-07-29T05:38:28;27.40;75.20
24426;DHT22;12611;44.446;26.000;2022-07-29T05:40:57;27.40;75.00
24426;DHT22;12611;44.446;26.000;2022-07-29T05:43:29;27.50;75.00
24426;DHT22;12611;44.446;26.000;2022-07-29T05:45:57;27.50;74.80
24426;DHT22;12611;44.446;26.000;2022-07-29T05:48:26;27.60;74.60
24426;DHT22;12611;44.446;26.000;2022-07-29T05:50:54;27.60;74.40
24426;DHT22;12611;44.446;26.000;2022-07-29T05:53:23;27.70;74.30
24426;DHT22;12611;44.446;26.000;2022-07-29T05:55:52;27.70;74.30
24426;DHT22;12611;44.446;26.000;2022-07-29T05:58:20;27.80;74.20
24426;DHT22;12611;44.446;26.000;2022-07-29T06:00:50;27.90;74.10
24426;DHT22;12611;44.446;26.000;2022-07-29T06:03:19;27.90;73.80
24426;DHT22;12611;44.446;26.000;2022-07-29T06:05:48;28.10;73.80
24426;DHT22;12611;44.446;26.000;2022-07-29T06:08:17;28.10;72.70
24426;DHT22;12611;44.446;26.000;2022-07-29T06:10:45;28.10;72.20
24426;DHT22;12611;44.446;26.000;2022-07-29T06:13:16;28.10;71.90
24426;DHT22;12611;44.446;26.000;2022-07-29T06:15:45;28.20;72.00
24426;DHT22;12611;44.446;26.000;2022-07-29T06:18:18;28.20;72.00
24426;DHT22;12611;44.446;26.000;2022-07-29T06:20:47;28.30;71.80
24426;DHT22;12611;44.446;26.000;2022-07-29T06:23:16;28.40;71.70
24426;DHT22;12611;44.446;26.000;2022-07-29T06:25:44;28.40;71.20
24426;DHT22;12611;44.446;26.000;2022-07-29T06:28:18;28.50;71.10
24426;DHT22;12611;44.446;26.000;2022-07-29T06:30:46;28.60;71.00
24426;DHT22;12611;44.446;26.000;2022-07-29T06:33:19;28.60;70.60
24426;DHT22;12611;44.446;26.000;2022-07-29T06:35:48;28.70;70.70
24426;DHT22;12611;44.446;26.000;2022-07-29T06:38:21;28.80;70.60
24426;DHT22;12611;44.446;26.000;2022-07-29T06:41:00;28.80;70.50
24426;DHT22;12611;44.446;26.000;2022-07-29T06:43:32;28.80;70.20
24426;DHT22;12611;44.446;26.000;2022-07-29T06:46:18;28.90;70.30
24426;DHT22;12611;44.446;26.000;2022-07-29T06:48:49;28.90;70.10
24426;DHT22;12611;44.446;26.000;2022-07-29T06:51:18;29.00;69.90
24426;DHT22;12611;44.446;26.000;2022-07-29T06:53:50;29.10;69.80
24426;DHT22;12611;44.446;26.000;2022-07-29T06:56:29;29.10;69.20
24426;DHT22;12611;44.446;26.000;2022-07-29T06:58:57;29.20;68.80
24426;DHT22;12611;44.446;26.000;2022-07-29T07:01:27;29.30;68.40
24426;DHT22;12611;44.446;26.000;2022-07-29T07:03:57;29.40;68.30
24426;DHT22;12611;44.446;26.000;2022-07-29T07:06:25;29.40;67.60
24426;DHT22;12611;44.446;26.000;2022-07-29T07:08:54;29.50;67.50
24426;DHT22;12611;44.446;26.000;2022-07-29T07:11:23;29.50;67.40
24426;DHT22;12611;44.446;26.000;2022-07-29T07:13:51;29.60;67.10
24426;DHT22;12611;44.446;26.000;2022-07-29T07:16:22;29.70;66.90
24426;DHT22;12611;44.446;26.000;2022-07-29T07:18:50;29.80;66.90
24426;DHT22;12611;44.446;26.000;2022-07-29T07:21:20;29.80;66.50
24426;DHT22;12611;44.446;26.000;2022-07-29T07:23:50;29.90;66.30
24426;DHT22;12611;44.446;26.000;2022-07-29T07:26:18;29.90;66.00
24426;DHT22;12611;44.446;26.000;2022-07-29T07:28:47;30.00;65.70
24426;DHT22;12611;44.446;26.000;2022-07-29T07:31:15;30.10;64.90
24426;DHT22;12611;44.446;26.000;2022-07-29T07:33:44;30.10;64.70
24426;DHT22;12611;44.446;26.000;2022-07-29T07:36:13;30.10;64.40
24426;DHT22;12611;44.446;26.000;2022-07-29T07:38:42;30.20;64.50
24426;DHT22;12611;44.446;26.000;2022-07-29T07:41:11;30.30;64.50
24426;DHT22;12611;44.446;26.000;2022-07-29T07:43:39;30.30;64.00
24426;DHT22;12611;44.446;26.000;2022-07-29T07:46:07;30.30;63.70
24426;DHT22;12611;44.446;26.000;2022-07-29T07:48:36;30.40;62.70
24426;DHT22;12611;44.446;26.000;2022-07-29T07:51:07;30.40;62.80
24426;DHT22;12611;44.446;26.000;2022-07-29T07:53:36;30.50;62.70
24426;DHT22;12611;44.446;26.000;2022-07-29T07:56:08;30.50;62.90
24426;DHT22;12611;44.446;26.000;2022-07-29T07:58:38;30.50;62.70
24426;DHT22;12611;44.446;26.000;2022-07-29T08:01:07;30.60;62.40
24426;DHT22;12611;44.446;26.000;2022-07-29T08:03:36;30.60;61.90
24426;DHT22;12611;44.446;26.000;2022-07-29T08:06:05;30.60;61.80
24426;DHT22;12611;44.446;26.000;2022-07-29T08:08:33;30.60;61.80
24426;DHT22;12611;44.446;26.000;2022-07-29T08:11:02;30.70;61.30
24426;DHT22;12611;44.446;26.000;2022-07-29T08:13:37;30.70;61.40
24426;DHT22;12611;44.446;26.000;2022-07-29T08:16:07;30.70;61.30
24426;DHT22;12611;44.446;26.000;2022-07-29T08:18:43;30.70;60.80
24426;DHT22;12611;44.446;26.000;2022-07-29T08:21:13;30.80;60.40
24426;DHT22;12611;44.446;26.000;2022-07-29T08:23:42;30.70;59.90
24426;DHT22;12611;44.446;26.000;2022-07-29T08:26:26;30.80;59.70
24426;DHT22;12611;44.446;26.000;2022-07-29T08:28:56;30.80;59.80
24426;DHT22;12611;44.446;26.000;2022-07-29T08:31:24;30.90;59.90
24426;DHT22;12611;44.446;26.000;2022-07-29T08:33:53;30.90;59.60
24426;DHT22;12611;44.446;26.000;2022-07-29T08:36:24;31.00;59.00
24426;DHT22;12611;44.446;26.000;2022-07-29T08:38:53;31.20;59.00
24426;DHT22;12611;44.446;26.000;2022-07-29T08:41:21;31.20;58.50
24426;DHT22;12611;44.446;26.000;2022-07-29T08:43:50;31.30;58.80
24426;DHT22;12611;44.446;26.000;2022-07-29T08:46:21;31.30;58.20
24426;DHT22;12611;44.446;26.000;2022-07-29T08:48:49;31.30;58.00
24426;DHT22;12611;44.446;26.000;2022-07-29T08:51:20;31.40;58.30
24426;DHT22;12611;44.446;26.000;2022-07-29T08:53:50;31.40;57.50
24426;DHT22;12611;44.446;26.000;2022-07-29T08:56:19;31.40;57.90
24426;DHT22;12611;44.446;26.000;2022-07-29T08:58:49;31.50;58.10
24426;DHT22;12611;44.446;26.000;2022-07-29T09:01:24;31.50;58.00
24426;DHT22;12611;44.446;26.000;2022-07-29T09:04:05;31.50;57.70
24426;DHT22;12611;44.446;26.000;2022-07-29T09:06:42;31.50;56.90
24426;DHT22;12611;44.446;26.000;2022-07-29T09:09:12;31.60;57.00
24426;DHT22;12611;44.446;26.000;2022-07-29T09:11:41;31.60;56.60
24426;DHT22;12611;44.446;26.000;2022-07-29T09:14:12;31.70;56.60
24426;DHT22;12611;44.446;26.000;2022-07-29T09:16:54;31.80;56.80
24426;DHT22;12611;44.446;26.000;2022-07-29T09:19:25;31.80;56.80
24426;DHT22;12611;44.446;26.000;2022-07-29T09:21:56;31.80;56.70
24426;DHT22;12611;44.446;26.000;2022-07-29T09:24:44;31.90;56.30
24426;DHT22;12611;44.446;26.000;2022-07-29T09:27:20;31.90;56.30
24426;DHT22;12611;44.446;26.000;2022-07-29T09:29:59;32.00;54.40
24426;DHT22;12611;44.446;26.000;2022-07-29T09:32:29;32.00;54.50
24426;DHT22;12611;44.446;26.000;2022-07-29T09:35:14;32.10;54.40
24426;DHT22;12611;44.446;26.000;2022-07-29T09:37:46;32.10;54.40
24426;DHT22;12611;44.446;26.000;2022-07-29T09:40:18;32.20;54.20
24426;DHT22;12611;44.446;26.000;2022-07-29T09:42:47;32.20;53.30
24426;DHT22;12611;44.446;26.000;2022-07-29T09:45:27;32.20;53.20
24426;DHT22;12611;44.446;26.000;2022-07-29T09:47:58;32.30;53.00
24426;DHT22;12611;44.446;26.000;2022-07-29T09:50:37;32.40;53.40
24426;DHT22;12611;44.446;26.000;2022-07-29T09:53:06;32.40;53.10
24426;DHT22;12611;44.446;26.000;2022-07-29T09:55:47;32.50;53.20
24426;DHT22;12611;44.446;26.000;2022-07-29T09:58:21;32.50;52.90
24426;DHT22;12611;44.446;26.000;2022-07-29T10:00:53;32.60;53.00
24426;DHT22;12611;44.446;26.000;2022-07-29T10:03:24;32.70;52.70
24426;DHT22;12611;44.446;26.000;2022-07-29T10:06:07;32.70;52.60
24426;DHT22;12611;44.446;26.000;2022-07-29T10:08:44;32.80;52.60
24426;DHT22;12611;44.446;26.000;2022-07-29T10:11:14;32.80;52.40
24426;DHT22;12611;44.446;26.000;2022-07-29T10:13:44;32.90;52.30
24426;DHT22;12611;44.446;26.000;2022-07-29T10:16:19;32.90;51.90
24426;DHT22;12611;44.446;26.000;2022-07-29T10:18:50;32.90;51.70
24426;DHT22;12611;44.446;26.000;2022-07-29T10:21:19;33.00;52.10
24426;DHT22;12611;44.446;26.000;2022-07-29T10:24:02;33.00;52.10
24426;DHT22;12611;44.446;26.000;2022-07-29T10:26:41;33.10;51.80
24426;DHT22;12611;44.446;26.000;2022-07-29T10:29:10;33.10;51.90
24426;DHT22;12611;44.446;26.000;2022-07-29T10:31:47;33.20;51.70
24426;DHT22;12611;44.446;26.000;2022-07-29T10:34:26;33.30;51.30
24426;DHT22;12611;44.446;26.000;2022-07-29T10:37:14;33.30;50.80
24426;DHT22;12611;44.446;26.000;2022-07-29T10:39:53;33.30;50.90
24426;DHT22;12611;44.446;26.000;2022-07-29T10:42:25;33.40;50.80
24426;DHT22;12611;44.446;26.000;2022-07-29T10:45:02;33.40;50.70
24426;DHT22;12611;44.446;26.000;2022-07-29T10:47:31;33.50;50.00
24426;DHT22;12611;44.446;26.000;2022-07-29T10:50:04;33.60;50.10
24426;DHT22;12611;44.446;26.000;2022-07-29T10:52:52;33.60;49.90
24426;DHT22;12611;44.446;26.000;2022-07-29T10:55:34;33.60;50.20
24426;DHT22;12611;44.446;26.000;2022-07-29T10:58:13;33.70;49.70
24426;DHT22;12611;44.446;26.000;2022-07-29T11:00:44;33.80;50.00
24426;DHT22;12611;44.446;26.000;2022-07-29T11:03:43;33.80;50.50
24426;DHT22;12611;44.446;26.000;2022-07-29T11:06:18;33.90;49.90
24426;DHT22;12611;44.446;26.000;2022-07-29T11:09:17;33.90;49.70
24426;DHT22;12611;44.446;26.000;2022-07-29T11:12:01;34.00;49.30
24426;DHT22;12611;44.446;26.000;2022-07-29T11:14:59;34.00;49.30
24426;DHT22;12611;44.446;26.000;2022-07-29T11:17:29;34.10;49.20
24426;DHT22;12611;44.446;26.000;2022-07-29T11:20:38;34.20;49.20
24426;DHT22;12611;44.446;26.000;2022-07-29T11:23:24;34.30;49.30
24426;DHT22;12611;44.446;26.000;2022-07-29T11:26:18;34.30;49.00
24426;DHT22;12611;44.446;26.000;2022-07-29T11:28:54;34.40;49.40
24426;DHT22;12611;44.446;26.000;2022-07-29T11:31:35;34.40;48.60
24426;DHT22;12611;44.446;26.000;2022-07-29T11:34:19;34.50;48.40
24426;DHT22;12611;44.446;26.000;2022-07-29T11:37:14;34.50;47.90
24426;DHT22;12611;44.446;26.000;2022-07-29T11:40:13;34.60;48.50
24426;DHT22;12611;44.446;26.000;2022-07-29T11:42:48;34.60;48.40
24426;DHT22;12611;44.446;26.000;2022-07-29T11:45:23;34.60;47.90
24426;DHT22;12611;44.446;26.000;2022-07-29T11:48:16;34.70;47.50
24426;DHT22;12611;44.446;26.000;2022-07-29T11:50:56;34.70;46.90
24426;DHT22;12611;44.446;26.000;2022-07-29T11:53:47;34.70;47.10
24426;DHT22;12611;44.446;26.000;2022-07-29T11:56:21;34.70;47.10
24426;DHT22;12611;44.446;26.000;2022-07-29T11:59:02;34.80;46.60
24426;DHT22;12611;44.446;26.000;2022-07-29T12:01:34;34.80;46.90
24426;DHT22;12611;44.446;26.000;2022-07-29T12:04:03;34.90;47.20
24426;DHT22;12611;44.446;26.000;2022-07-29T12:06:33;34.90;47.50
24426;DHT22;12611;44.446;26.000;2022-07-29T12:09:07;34.90;46.80
24426;DHT22;12611;44.446;26.000;2022-07-29T12:11:42;34.90;45.80
24426;DHT22;12611;44.446;26.000;2022-07-29T12:14:27;35.00;46.00
24426;DHT22;12611;44.446;26.000;2022-07-29T12:16:57;35.00;46.50
24426;DHT22;12611;44.446;26.000;2022-07-29T12:19:26;35.10;46.70
24426;DHT22;12611;44.446;26.000;2022-07-29T12:21:57;35.10;46.00
24426;DHT22;12611;44.446;26.000;2022-07-29T12:24:42;35.10;46.10
24426;DHT22;12611;44.446;26.000;2022-07-29T12:27:17;35.10;46.20
24426;DHT22;12611;44.446;26.000;2022-07-29T12:29:56;35.20;46.50
24426;DHT22;12611;44.446;26.000;2022-07-29T12:32:31;35.20;46.90
24426;DHT22;12611;44.446;26.000;2022-07-29T12:35:02;35.30;46.90
24426;DHT22;12611;44.446;26.000;2022-07-29T12:37:33;35.30;46.80
24426;DHT22;12611;44.446;26.000;2022-07-29T12:40:09;35.30;46.50
24426;DHT22;12611;44.446;26.000;2022-07-29T12:42:39;35.30;46.60
24426;DHT22;12611;44.446;26.000;2022-07-29T12:45:08;35.30;46.60
24426;DHT22;12611;44.446;26.000;2022-07-29T12:47:51;35.40;46.60
24426;DHT22;12611;44.446;26.000;2022-07-29T12:50:20;35.40;46.30
24426;DHT22;12611;44.446;26.000;2022-07-29T12:52:52;35.40;46.50
24426;DHT22;12611;44.446;26.000;2022-07-29T12:55:38;35.40;46.30
24426;DHT22;12611;44.446;26.000;2022-07-29T12:58:08;35.50;46.60
24426;DHT22;12611;44.446;26.000;2022-07-29T13:00:37;35.50;45.20
24426;DHT22;12611;44.446;26.000;2022-07-29T13:03:05;35.50;45.20
24426;DHT22;12611;44.446;26.000;2022-07-29T13:05:42;35.60;45.50
24426;DHT22;12611;44.446;26.000;2022-07-29T13:08:18;35.60;45.40
24426;DHT22;12611;44.446;26.000;2022-07-29T13:10:48;35.70;45.50
24426;DHT22;12611;44.446;26.000;2022-07-29T13:13:18;35.70;45.10
24426;DHT22;12611;44.446;26.000;2022-07-29T13:16:05;35.70;45.20
24426;DHT22;12611;44.446;26.000;2022-07-29T13:18:35;35.70;45.00
24426;DHT22;12611;44.446;26.000;2022-07-29T13:21:11;35.70;45.70
24426;DHT22;12611;44.446;26.000;2022-07-29T13:23:39;35.80;45.30
24426;DHT22;12611;44.446;26.000;2022-07-29T13:26:08;35.90;45.30
24426;DHT22;12611;44.446;26.000;2022-07-29T13:28:39;35.90;45.20
24426;DHT22;12611;44.446;26.000;2022-07-29T13:31:10;36.00;44.60
24426;DHT22;12611;44.446;26.000;2022-07-29T13:33:39;36.00;45.30
24426;DHT22;12611;44.446;26.000;2022-07-29T13:36:07;36.00;44.60
24426;DHT22;12611;44.446;26.000;2022-07-29T13:38:35;36.10;44.70
24426;DHT22;12611;44.446;26.000;2022-07-29T13:41:04;36.10;44.70
24426;DHT22;12611;44.446;26.000;2022-07-29T13:43:32;36.10;44.40
24426;DHT22;12611;44.446;26.000;2022-07-29T13:46:02;36.10;43.90
24426;DHT22;12611;44.446;26.000;2022-07-29T13:48:31;36.10;43.90
24426;DHT22;12611;44.446;26.000;2022-07-29T13:50:59;36.10;43.90
24426;DHT22;12611;44.446;26.000;2022-07-29T13:53:28;36.10;44.00
24426;DHT22;12611;44.446;26.000;2022-07-29T13:55:56;36.10;43.90
24426;DHT22;12611;44.446;26.000;2022-07-29T13:58:25;36.10;44.20
24426;DHT22;12611;44.446;26.000;2022-07-29T14:00:53;36.10;44.10
24426;DHT22;12611;44.446;26.000;2022-07-29T14:03:23;36.20;44.30
24426;DHT22;12611;44.446;26.000;2022-07-29T14:05:52;36.20;44.30
24426;DHT22;12611;44.446;26.000;2022-07-29T14:08:20;36.20;44.20
24426;DHT22;12611;44.446;26.000;2022-07-29T14:10:49;36.20;44.30
24426;DHT22;12611;44.446;26.000;2022-07-29T14:13:18;36.20;44.00
24426;DHT22;12611;44.446;26.000;2022-07-29T14:15:50;36.20;43.80
24426;DHT22;12611;44.446;26.000;2022-07-29T14:18:19;36.20;43.70
24426;DHT22;12611;44.446;26.000;2022-07-29T14:20:48;36.40;43.40
24426;DHT22;12611;44.446;26.000;2022-07-29T14:23:18;36.40;43.20
24426;DHT22;12611;44.446;26.000;2022-07-29T14:25:46;36.40;42.70
24426;DHT22;12611;44.446;26.000;2022-07-29T14:28:15;36.30;42.50
24426;DHT22;12611;44.446;26.000;2022-07-29T14:30:44;36.60;42.60
24426;DHT22;12611;44.446;26.000;2022-07-29T14:33:15;36.70;42.70
24426;DHT22;12611;44.446;26.000;2022-07-29T14:35:44;36.90;42.20
24426;DHT22;12611;44.446;26.000;2022-07-29T14:38:14;37.20;41.90
24426;DHT22;12611;44.446;26.000;2022-07-29T14:40:42;37.60;41.50
24426;DHT22;12611;44.446;26.000;2022-07-29T14:43:16;37.40;41.70
24426;DHT22;12611;44.446;26.000;2022-07-29T14:45:47;37.30;42.10
24426;DHT22;12611;44.446;26.000;2022-07-29T14:48:16;37.50;42.10
24426;DHT22;12611;44.446;26.000;2022-07-29T14:50:44;37.50;42.20
24426;DHT22;12611;44.446;26.000;2022-07-29T14:53:14;37.50;42.00
24426;DHT22;12611;44.446;26.000;2022-07-29T14:55:42;37.40;42.00
24426;DHT22;12611;44.446;26.000;2022-07-29T14:58:11;37.20;41.60
24426;DHT22;12611;44.446;26.000;2022-07-29T15:00:43;37.20;41.60
24426;DHT22;12611;44.446;26.000;2022-07-29T15:03:12;37.10;42.00
24426;DHT22;12611;44.446;26.000;2022-07-29T15:05:50;37.10;42.10
24426;DHT22;12611;44.446;26.000;2022-07-29T15:08:20;37.30;42.30
24426;DHT22;12611;44.446;26.000;2022-07-29T15:10:48;37.20;42.10
24426;DHT22;12611;44.446;26.000;2022-07-29T15:13:17;37.10;41.90
24426;DHT22;12611;44.446;26.000;2022-07-29T15:15:45;37.00;41.60
24426;DHT22;12611;44.446;26.000;2022-07-29T15:18:14;36.90;41.80
24426;DHT22;12611;44.446;26.000;2022-07-29T15:20:51;36.80;42.10
24426;DHT22;12611;44.446;26.000;2022-07-29T15:23:21;36.80;42.10
24426;DHT22;12611;44.446;26.000;2022-07-29T15:25:50;36.90;42.30
24426;DHT22;12611;44.446;26.000;2022-07-29T15:28:21;36.80;42.30
24426;DHT22;12611;44.446;26.000;2022-07-29T15:30:50;36.70;42.30
24426;DHT22;12611;44.446;26.000;2022-07-29T15:33:18;36.70;42.40
24426;DHT22;12611;44.446;26.000;2022-07-29T15:35:47;36.70;42.40
24426;DHT22;12611;44.446;26.000;2022-07-29T15:38:16;36.60;42.50
24426;DHT22;12611;44.446;26.000;2022-07-29T15:40:45;36.60;42.50
24426;DHT22;12611;44.446;26.000;2022-07-29T15:43:14;36.60;42.50
24426;DHT22;12611;44.446;26.000;2022-07-29T15:45:46;36.50;42.60
24426;DHT22;12611;44.446;26.000;2022-07-29T15:48:28;36.50;42.70